Time,TemperatureF,DewpointF,PressureIn,WindDirection,WindDirectionDegrees,WindSpeedMPH,WindSpeedGustMPH,Humidity,HourlyPrecipIn,Conditions,Clouds,dailyrainin,SoftwareType,DateUTC
2013-03-30 00:00:00,36.0,23.8,30.08,West,273,0.0,2.7,61,0.00,,CLR,0.00,VWS V13.00,2013-03-30 04:00:00,
2013-03-30 00:01:00,35.8,23.7,30.08,West,273,0.0,0.0,61,0.00,,CLR,0.00,VWS V13.00,2013-03-30 04:01:00,
2013-03-30 00:07:00,35.6,23.5,30.08,West,273,0.0,0.0,61,0.00,,CLR,0.00,VWS V13.00,2013-03-30 04:07:00,
2013-03-30 00:12:00,35.6,23.5,30.08,West,273,0.0,0.0,61,0.00,,CLR,0.00,VWS V13.00,2013-03-30 04:12:00,
2013-03-30 00:17:00,35.2,23.5,30.08,West,273,0.0,0.0,62,0.00,,CLR,0.00,VWS V13.00,2013-03-30 04:17:00,
2013-03-30 00:22:00,35.1,23.8,30.08,West,273,0.0,0.0,63,0.00,,CLR,0.00,VWS V13.00,2013-03-30 04:22:00,
2013-03-30 00:27:00,35.1,23.8,30.08,West,273,0.0,0.0,63,0.00,,CLR,0.00,VWS V13.00,2013-03-30 04:27:00,
2013-03-30 00:32:00,34.9,23.6,30.08,West,273,0.0,0.0,63,0.00,,CLR,0.00,VWS V13.00,2013-03-30 04:32:00,
2013-03-30 00:37:00,35.1,24.1,30.08,West,273,0.0,2.7,64,0.00,,CLR,0.00,VWS V13.00,2013-03-30 04:37:00,
2013-03-30 00:42:00,34.9,24.0,30.08,West,273,2.7,2.7,64,0.00,,CLR,0.00,VWS V13.00,2013-03-30 04:42:00,
2013-03-30 00:47:00,34.9,24.0,30.08,West,273,0.0,2.7,64,0.00,,CLR,0.00,VWS V13.00,2013-03-30 04:47:00,
2013-03-30 00:52:00,34.5,24.0,30.08,West,268,0.0,3.1,65,0.00,,CLR,0.00,VWS V13.00,2013-03-30 04:52:00,
2013-03-30 00:57:00,34.5,24.0,30.08,WNW,299,2.7,4.9,65,0.00,,CLR,0.00,VWS V13.00,2013-03-30 04:57:00,
2013-03-30 01:02:00,34.7,24.5,30.08,WNW,299,0.0,0.0,66,0.00,,CLR,0.00,VWS V13.00,2013-03-30 05:02:00,
2013-03-30 01:07:00,34.5,24.4,30.08,WNW,299,0.0,2.2,66,0.00,,CLR,0.00,VWS V13.00,2013-03-30 05:07:00,
2013-03-30 01:12:00,34.7,24.5,30.08,West,276,0.0,3.1,66,0.00,,CLR,0.00,VWS V13.00,2013-03-30 05:12:00,
2013-03-30 01:17:00,34.9,24.7,30.08,WSW,250,2.2,3.1,66,0.00,,CLR,0.00,VWS V13.00,2013-03-30 05:17:00,
2013-03-30 01:22:00,34.9,24.7,30.08,NNW,338,0.0,2.7,66,0.00,,CLR,0.00,VWS V13.00,2013-03-30 05:22:00,
2013-03-30 01:28:00,34.7,24.5,30.08,WSW,246,2.7,4.0,66,0.00,,CLR,0.00,VWS V13.00,2013-03-30 05:28:00,
2013-03-30 01:33:00,34.3,24.2,30.08,WSW,246,0.0,4.0,66,0.00,,CLR,0.00,VWS V13.00,2013-03-30 05:33:00,
2013-03-30 01:38:00,34.5,24.4,30.08,WSW,246,0.0,4.0,66,0.00,,CLR,0.00,VWS V13.00,2013-03-30 05:38:00,
2013-03-30 01:43:00,34.3,24.2,30.08,WSW,246,0.0,3.1,66,0.00,,CLR,0.00,VWS V13.00,2013-03-30 05:43:00,
2013-03-30 01:48:00,34.2,24.0,30.08,WSW,246,0.0,3.6,66,0.00,,CLR,0.00,VWS V13.00,2013-03-30 05:48:00,
2013-03-30 01:53:00,34.3,24.2,30.08,WSW,246,2.2,3.6,66,0.00,,CLR,0.00,VWS V13.00,2013-03-30 05:53:00,
2013-03-30 01:58:00,34.3,24.2,30.08,WSW,246,0.0,3.6,66,0.00,,CLR,0.00,VWS V13.00,2013-03-30 05:58:00,
2013-03-30 02:03:00,34.2,24.0,30.08,WSW,246,0.0,0.0,66,0.00,,CLR,0.00,VWS V13.00,2013-03-30 06:03:00,
2013-03-30 02:08:00,33.8,23.7,30.08,WSW,246,3.1,3.1,66,0.00,,CLR,0.00,VWS V13.00,2013-03-30 06:08:00,
2013-03-30 02:13:00,33.6,23.9,30.08,WSW,246,2.2,3.1,67,0.00,,CLR,0.00,VWS V13.00,2013-03-30 06:13:00,
2013-03-30 02:18:00,33.6,23.9,30.08,WSW,246,2.7,3.6,67,0.00,,CLR,0.00,VWS V13.00,2013-03-30 06:18:00,
2013-03-30 02:23:00,33.8,24.0,30.08,WSW,254,2.2,3.6,67,0.00,,CLR,0.00,VWS V13.00,2013-03-30 06:23:00,
2013-03-30 02:28:00,33.3,23.5,30.08,WSW,254,0.0,3.6,67,0.00,,CLR,0.00,VWS V13.00,2013-03-30 06:28:00,
2013-03-30 02:33:00,33.4,24.0,30.08,WSW,254,2.2,3.6,68,0.00,,CLR,0.00,VWS V13.00,2013-03-30 06:33:00,
2013-03-30 02:38:00,33.6,24.2,30.08,WSW,258,3.6,4.0,68,0.00,,CLR,0.00,VWS V13.00,2013-03-30 06:38:00,
2013-03-30 02:43:00,33.4,24.0,30.08,WSW,258,2.2,3.1,68,0.00,,CLR,0.00,VWS V13.00,2013-03-30 06:43:00,
2013-03-30 02:48:00,33.3,23.9,30.08,WSW,258,3.1,4.0,68,0.00,,CLR,0.00,VWS V13.00,2013-03-30 06:48:00,
2013-03-30 02:53:00,33.1,24.0,30.08,WSW,258,2.7,4.0,69,0.00,,CLR,0.00,VWS V13.00,2013-03-30 06:53:00,
2013-03-30 02:58:00,33.1,24.0,30.08,WSW,258,3.1,4.0,69,0.00,,CLR,0.00,VWS V13.00,2013-03-30 06:58:00,
2013-03-30 03:03:00,32.5,23.5,30.08,WSW,258,0.0,3.6,69,0.00,,CLR,0.00,VWS V13.00,2013-03-30 07:03:00,
2013-03-30 03:08:00,32.5,23.5,30.08,WSW,258,2.7,3.6,69,0.00,,CLR,0.00,VWS V13.00,2013-03-30 07:08:00,
2013-03-30 03:13:00,32.4,23.3,30.08,WSW,258,2.7,3.6,69,0.00,,CLR,0.00,VWS V13.00,2013-03-30 07:13:00,
2013-03-30 03:19:00,32.2,23.2,30.08,WSW,258,0.0,3.6,69,0.00,,CLR,0.00,VWS V13.00,2013-03-30 07:19:00,
2013-03-30 03:24:00,32.2,23.5,30.08,WSW,258,0.0,3.1,70,0.00,,CLR,0.00,VWS V13.00,2013-03-30 07:24:00,
2013-03-30 03:29:00,32.0,23.3,30.08,WSW,258,2.7,3.1,70,0.00,,CLR,0.00,VWS V13.00,2013-03-30 07:29:00,
2013-03-30 03:34:00,32.0,23.3,30.08,WSW,258,2.2,3.6,70,0.00,,CLR,0.00,VWS V13.00,2013-03-30 07:34:00,
2013-03-30 03:39:00,31.6,23.3,30.08,WSW,258,3.1,3.6,71,0.00,,CLR,0.00,VWS V13.00,2013-03-30 07:39:00,
2013-03-30 03:44:00,31.6,23.3,30.08,WSW,258,0.0,2.7,71,0.00,,CLR,0.00,VWS V13.00,2013-03-30 07:44:00,
2013-03-30 03:49:00,31.6,23.3,30.08,WSW,258,2.7,3.1,71,0.00,,CLR,0.00,VWS V13.00,2013-03-30 07:49:00,
2013-03-30 03:54:00,31.6,23.3,30.08,WSW,258,2.7,3.1,71,0.00,,CLR,0.00,VWS V13.00,2013-03-30 07:54:00,
2013-03-30 03:59:00,31.5,23.2,30.08,WSW,258,3.1,3.1,71,0.00,,CLR,0.00,VWS V13.00,2013-03-30 07:59:00,
2013-03-30 04:04:00,31.5,23.2,30.08,WSW,258,0.0,3.1,71,0.00,,CLR,0.00,VWS V13.00,2013-03-30 08:04:00,
2013-03-30 04:09:00,31.6,23.7,30.08,WSW,258,0.0,3.1,72,0.00,,CLR,0.00,VWS V13.00,2013-03-30 08:09:00,
2013-03-30 04:14:00,31.6,23.7,30.08,WSW,258,0.0,3.1,72,0.00,,CLR,0.00,VWS V13.00,2013-03-30 08:14:00,
2013-03-30 04:19:00,31.6,23.7,30.08,WSW,239,0.0,3.1,72,0.00,,CLR,0.00,VWS V13.00,2013-03-30 08:19:00,
2013-03-30 04:24:00,32.0,24.0,30.08,WSW,239,2.2,3.6,72,0.00,,CLR,0.00,VWS V13.00,2013-03-30 08:24:00,
2013-03-30 04:29:00,32.0,24.0,30.08,WSW,239,2.2,3.6,72,0.00,,CLR,0.00,VWS V13.00,2013-03-30 08:29:00,
2013-03-30 04:34:00,32.0,24.0,30.08,WSW,239,0.0,3.6,72,0.00,,CLR,0.00,VWS V13.00,2013-03-30 08:34:00,
2013-03-30 04:39:00,31.8,23.8,30.08,WSW,239,0.0,3.6,72,0.00,,CLR,0.00,VWS V13.00,2013-03-30 08:39:00,
2013-03-30 04:44:00,31.8,23.8,30.08,WSW,239,2.7,2.7,72,0.00,,CLR,0.00,VWS V13.00,2013-03-30 08:44:00,
2013-03-30 04:49:00,31.8,23.8,30.08,WSW,239,0.0,2.7,72,0.00,,CLR,0.00,VWS V13.00,2013-03-30 08:49:00,
2013-03-30 04:54:00,31.6,23.7,30.08,WSW,239,3.6,3.6,72,0.00,,CLR,0.00,VWS V13.00,2013-03-30 08:54:00,
2013-03-30 04:59:00,31.5,23.5,30.08,WSW,239,0.0,3.6,72,0.00,,CLR,0.00,VWS V13.00,2013-03-30 08:59:00,
2013-03-30 05:04:00,31.6,23.7,30.08,WSW,239,2.2,2.7,72,0.00,,CLR,0.00,VWS V13.00,2013-03-30 09:04:00,
2013-03-30 05:09:00,31.5,23.5,30.08,WSW,239,0.0,3.1,72,0.00,,CLR,0.00,VWS V13.00,2013-03-30 09:09:00,
2013-03-30 05:14:00,31.1,23.1,30.08,WSW,239,0.0,3.1,72,0.00,,CLR,0.00,VWS V13.00,2013-03-30 09:14:00,
2013-03-30 05:20:00,31.1,23.1,30.08,WSW,239,2.7,3.1,72,0.00,,CLR,0.00,VWS V13.00,2013-03-30 09:20:00,
2013-03-30 05:25:00,31.5,23.8,30.08,WSW,239,0.0,2.2,73,0.00,,CLR,0.00,VWS V13.00,2013-03-30 09:25:00,
2013-03-30 05:30:00,31.5,23.8,30.08,WSW,239,0.0,3.6,73,0.00,,CLR,0.00,VWS V13.00,2013-03-30 09:30:00,
2013-03-30 05:34:00,31.8,24.2,30.08,WSW,239,2.7,3.6,73,0.00,,CLR,0.00,VWS V13.00,2013-03-30 09:34:00,
2013-03-30 05:39:00,32.4,24.7,30.08,WSW,251,0.0,4.9,73,0.00,,CLR,0.00,VWS V13.00,2013-03-30 09:39:00,
2013-03-30 05:44:00,32.2,24.5,30.08,WSW,251,0.0,2.2,73,0.00,,CLR,0.00,VWS V13.00,2013-03-30 09:44:00,
2013-03-30 05:49:00,31.5,23.8,30.08,WSW,238,3.1,3.6,73,0.00,,CLR,0.00,VWS V13.00,2013-03-30 09:49:00,
2013-03-30 05:54:00,31.1,23.1,30.08,WSW,238,2.7,3.6,72,0.00,,CLR,0.00,VWS V13.00,2013-03-30 09:54:00,
2013-03-30 05:59:00,30.7,23.1,30.08,WSW,238,2.7,3.6,73,0.00,,CLR,0.00,VWS V13.00,2013-03-30 09:59:00,
2013-03-30 06:04:00,30.4,22.8,30.08,WSW,238,2.2,3.6,73,0.00,,CLR,0.00,VWS V13.00,2013-03-30 10:04:00,
2013-03-30 06:09:00,30.2,22.6,30.08,WSW,238,2.7,3.6,73,0.00,,CLR,0.00,VWS V13.00,2013-03-30 10:09:00,
2013-03-30 06:14:00,29.8,22.6,30.08,WSW,238,2.2,3.6,74,0.00,,CLR,0.00,VWS V13.00,2013-03-30 10:14:00,
2013-03-30 06:19:00,29.7,22.4,30.08,WSW,238,2.7,3.6,74,0.00,,CLR,0.00,VWS V13.00,2013-03-30 10:19:00,
2013-03-30 06:24:00,29.5,22.2,30.08,WSW,238,2.7,3.1,74,0.00,,CLR,0.00,VWS V13.00,2013-03-30 10:24:00,
2013-03-30 06:29:00,29.5,22.2,30.08,WSW,238,0.0,3.1,74,0.00,,CLR,0.00,VWS V13.00,2013-03-30 10:29:00,
2013-03-30 06:34:00,29.3,22.4,30.08,WSW,238,0.0,3.1,75,0.00,,CLR,0.00,VWS V13.00,2013-03-30 10:34:00,
2013-03-30 06:39:00,29.5,22.5,30.08,WSW,238,0.0,3.1,75,0.00,,CLR,0.00,VWS V13.00,2013-03-30 10:39:00,
2013-03-30 06:44:00,29.5,22.5,30.11,WSW,238,0.0,0.0,75,0.00,,CLR,0.00,VWS V13.00,2013-03-30 10:44:00,
2013-03-30 06:50:00,29.5,22.9,30.11,WSW,238,2.7,3.1,76,0.00,,CLR,0.00,VWS V13.00,2013-03-30 10:50:00,
2013-03-30 06:55:00,29.7,23.0,30.11,WSW,238,2.2,3.1,76,0.00,,CLR,0.00,VWS V13.00,2013-03-30 10:55:00,
2013-03-30 07:00:00,29.8,23.2,30.11,WSW,238,0.0,3.6,76,0.00,,CLR,0.00,VWS V13.00,2013-03-30 11:00:00,
2013-03-30 07:05:00,30.9,24.3,30.11,WSW,238,2.2,3.1,76,0.00,,CLR,0.00,VWS V13.00,2013-03-30 11:05:00,
2013-03-30 07:10:00,31.1,24.4,30.11,WSW,238,2.2,3.6,76,0.00,,CLR,0.00,VWS V13.00,2013-03-30 11:10:00,
2013-03-30 07:15:00,31.1,24.4,30.11,WSW,238,3.1,3.6,76,0.00,,CLR,0.00,VWS V13.00,2013-03-30 11:15:00,
2013-03-30 07:20:00,32.0,25.3,30.11,WSW,238,2.2,3.6,76,0.00,,CLR,0.00,VWS V13.00,2013-03-30 11:20:00,
2013-03-30 07:25:00,32.5,25.8,30.11,WSW,238,3.1,3.1,76,0.00,,CLR,0.00,VWS V13.00,2013-03-30 11:25:00,
2013-03-30 07:30:00,32.7,26.0,30.11,SW,222,2.7,3.1,76,0.00,,CLR,0.00,VWS V13.00,2013-03-30 11:30:00,
2013-03-30 07:35:00,33.3,26.5,30.11,WSW,247,2.2,3.1,76,0.00,,CLR,0.00,VWS V13.00,2013-03-30 11:35:00,
2013-03-30 07:40:00,33.6,26.9,30.11,WSW,247,0.0,3.1,76,0.00,,CLR,0.00,VWS V13.00,2013-03-30 11:40:00,
2013-03-30 07:45:00,34.2,27.1,30.11,SW,230,2.7,4.0,75,0.00,,CLR,0.00,VWS V13.00,2013-03-30 11:45:00,
2013-03-30 07:50:00,34.9,27.8,30.11,WNW,296,0.0,4.0,75,0.00,,CLR,0.00,VWS V13.00,2013-03-30 11:50:00,
2013-03-30 07:55:00,35.6,28.1,30.11,WSW,240,3.1,5.8,74,0.00,,CLR,0.00,VWS V13.00,2013-03-30 11:55:00,
2013-03-30 08:00:00,36.1,28.3,30.11,West,276,0.0,5.8,73,0.00,,CLR,0.00,VWS V13.00,2013-03-30 12:00:00,
2013-03-30 08:05:00,36.5,28.4,30.11,WNW,285,4.0,5.4,72,0.00,,CLR,0.00,VWS V13.00,2013-03-30 12:05:00,
2013-03-30 08:10:00,37.0,28.5,30.11,ESE,112,2.7,5.4,71,0.00,,CLR,0.00,VWS V13.00,2013-03-30 12:10:00,
2013-03-30 08:15:00,37.6,28.4,30.11,SSW,202,0.0,5.4,69,0.00,,CLR,0.00,VWS V13.00,2013-03-30 12:15:00,
2013-03-30 08:20:00,38.3,28.7,30.11,SSW,202,0.0,0.0,68,0.00,,CLR,0.00,VWS V13.00,2013-03-30 12:20:00,
2013-03-30 08:25:00,39.4,29.0,30.11,WNW,284,3.1,8.1,66,0.00,,CLR,0.00,VWS V13.00,2013-03-30 12:25:00,
2013-03-30 08:30:00,40.5,28.9,30.11,West,275,4.0,8.1,63,0.00,,CLR,0.00,VWS V13.00,2013-03-30 12:30:00,
2013-03-30 08:35:00,41.7,28.9,30.11,West,270,3.6,8.1,60,0.00,,CLR,0.00,VWS V13.00,2013-03-30 12:35:00,
2013-03-30 08:41:00,43.7,29.9,30.11,WSW,240,2.2,2.7,58,0.00,,CLR,0.00,VWS V13.00,2013-03-30 12:41:00,
2013-03-30 08:46:00,45.0,29.3,30.11,West,261,5.8,5.8,54,0.00,,CLR,0.00,VWS V13.00,2013-03-30 12:46:00,
2013-03-30 08:51:00,45.5,29.4,30.11,East,89,3.1,5.8,53,0.00,,CLR,0.00,VWS V13.00,2013-03-30 12:51:00,
2013-03-30 08:56:00,45.1,27.6,30.11,SSE,163,2.2,8.7,50,0.00,,CLR,0.00,VWS V13.00,2013-03-30 12:56:00,
2013-03-30 09:01:00,45.5,27.5,30.11,NNE,18,4.0,4.0,49,0.00,,CLR,0.00,VWS V13.00,2013-03-30 13:01:00,
2013-03-30 09:06:00,46.6,28.0,30.11,NE,37,0.0,4.0,48,0.00,,CLR,0.00,VWS V13.00,2013-03-30 13:06:00,
2013-03-30 09:11:00,47.7,28.4,30.11,NE,35,0.0,4.0,47,0.00,,CLR,0.00,VWS V13.00,2013-03-30 13:11:00,
2013-03-30 09:16:00,47.8,28.1,30.11,NE,56,0.0,4.0,46,0.00,,CLR,0.00,VWS V13.00,2013-03-30 13:16:00,
2013-03-30 09:21:00,47.8,27.5,30.11,North,3,0.0,3.1,45,0.00,,CLR,0.00,VWS V13.00,2013-03-30 13:21:00,
2013-03-30 09:27:00,47.3,26.5,30.11,ESE,103,2.7,4.9,44,0.00,,CLR,0.00,VWS V13.00,2013-03-30 13:27:00,
2013-03-30 09:32:00,47.1,25.8,30.11,North,353,3.1,4.9,43,0.00,,-RA,0.00,VWS V13.00,2013-03-30 13:32:00,
2013-03-30 09:37:00,47.5,26.1,30.11,NNE,31,3.6,8.7,43,0.00,,-RA,0.00,VWS V13.00,2013-03-30 13:37:00,
2013-03-30 09:42:00,47.7,26.3,30.11,South,170,0.0,2.2,43,0.00,,-RA,0.00,VWS V13.00,2013-03-30 13:42:00,
2013-03-30 09:47:00,48.2,26.2,30.11,NE,55,2.7,4.0,42,0.00,,-RA,0.00,VWS V13.00,2013-03-30 13:47:00,
2013-03-30 09:52:00,48.0,26.0,30.11,ENE,71,0.0,4.0,42,0.00,,-RA,0.00,VWS V13.00,2013-03-30 13:52:00,
2013-03-30 09:57:00,48.0,25.5,30.11,NE,48,3.1,5.4,41,0.00,,-RA,0.00,VWS V13.00,2013-03-30 13:57:00,
2013-03-30 10:02:00,48.0,24.9,30.11,North,353,3.1,4.0,40,0.00,,-RA,0.00,VWS V13.00,2013-03-30 14:02:00,
2013-03-30 10:07:00,48.7,25.5,30.11,NNE,22,3.6,5.8,40,0.00,,-RA,0.00,VWS V13.00,2013-03-30 14:07:00,
2013-03-30 10:12:00,48.7,24.9,30.11,NNE,15,0.0,5.8,39,0.00,,-RA,0.00,VWS V13.00,2013-03-30 14:12:00,
2013-03-30 10:17:00,48.9,25.1,30.11,NE,50,2.7,5.8,39,0.00,,-RA,0.00,VWS V13.00,2013-03-30 14:17:00,
2013-03-30 10:22:00,49.3,25.4,30.11,North,8,2.2,5.4,39,0.00,,-RA,0.00,VWS V13.00,2013-03-30 14:22:00,
2013-03-30 10:27:00,50.2,25.6,30.11,ENE,71,3.1,5.4,38,0.00,,-RA,0.00,VWS V13.00,2013-03-30 14:27:00,
2013-03-30 10:33:00,50.2,25.6,30.11,ENE,72,2.7,5.4,38,0.00,,-RA,0.00,VWS V13.00,2013-03-30 14:33:00,
2013-03-30 10:38:00,50.4,25.7,30.11,West,266,3.1,5.8,38,0.00,,-RA,0.00,VWS V13.00,2013-03-30 14:38:00,
2013-03-30 10:43:00,51.4,26.0,30.11,SSE,165,2.7,6.3,37,0.00,,-RA,0.00,VWS V13.00,2013-03-30 14:43:00,
2013-03-30 10:48:00,51.6,26.2,30.11,NNE,27,3.6,6.3,37,0.00,,-RA,0.00,VWS V13.00,2013-03-30 14:48:00,
2013-03-30 10:53:00,51.3,25.9,30.11,NE,45,4.0,6.3,37,0.00,,-RA,0.00,VWS V13.00,2013-03-30 14:53:00,
2013-03-30 10:58:00,51.6,26.2,30.11,ENE,58,2.7,7.6,37,0.00,,-RA,0.00,VWS V13.00,2013-03-30 14:58:00,
2013-03-30 11:03:00,51.8,25.7,30.11,ENE,63,4.5,4.9,36,0.00,,-RA,0.00,VWS V13.00,2013-03-30 15:03:00,
2013-03-30 11:08:00,52.3,26.2,30.11,North,0,5.4,5.4,36,0.00,,-RA,0.00,VWS V13.00,2013-03-30 15:08:00,
2013-03-30 11:13:00,53.6,27.3,30.11,ESE,123,3.6,5.4,36,0.00,,-RA,0.00,VWS V13.00,2013-03-30 15:13:00,
2013-03-30 11:18:00,54.1,27.1,30.11,NE,40,3.1,8.1,35,0.00,,-RA,0.00,VWS V13.00,2013-03-30 15:18:00,
2013-03-30 11:23:00,54.5,27.4,30.11,NNW,345,4.0,5.8,35,0.00,,-RA,0.00,VWS V13.00,2013-03-30 15:23:00,
2013-03-30 11:28:00,55.2,28.1,30.11,West,259,4.0,6.3,35,0.00,,-RA,0.00,VWS V13.00,2013-03-30 15:28:00,
2013-03-30 11:33:00,55.2,28.1,30.11,North,4,3.1,7.6,35,0.00,,-RA,0.00,VWS V13.00,2013-03-30 15:33:00,
2013-03-30 11:38:00,54.9,27.0,30.11,South,186,0.0,7.6,34,0.00,,-RA,0.00,VWS V13.00,2013-03-30 15:38:00,
2013-03-30 11:43:00,54.7,26.2,30.11,NNW,341,3.6,3.6,33,0.00,,-RA,0.00,VWS V13.00,2013-03-30 15:43:00,
2013-03-30 11:48:00,54.5,26.0,30.11,ENE,74,3.1,5.8,33,0.00,,-RA,0.00,VWS V13.00,2013-03-30 15:48:00,
2013-03-30 11:53:00,55.0,27.2,30.11,East,84,3.1,5.8,34,0.00,,-RA,0.00,VWS V13.00,2013-03-30 15:53:00,
2013-03-30 11:58:00,55.6,27.0,30.11,SSW,210,6.3,6.3,33,0.00,,-RA,0.00,VWS V13.00,2013-03-30 15:58:00,
2013-03-30 12:03:00,55.2,25.9,30.11,NNW,345,2.7,5.8,32,0.00,,-RA,0.00,VWS V13.00,2013-03-30 16:03:00,
2013-03-30 12:08:00,54.9,24.8,30.11,ENE,70,4.0,6.3,31,0.00,,-RA,0.00,VWS V13.00,2013-03-30 16:08:00,
2013-03-30 12:13:00,54.5,24.5,30.11,East,97,0.0,6.3,31,0.00,,-RA,0.00,VWS V13.00,2013-03-30 16:13:00,
2013-03-30 12:18:00,54.5,24.5,30.11,SW,234,5.4,8.7,31,0.00,,-RA,0.00,VWS V13.00,2013-03-30 16:18:00,
2013-03-30 12:23:00,56.3,26.1,30.11,SSW,203,0.0,3.6,31,0.00,,-RA,0.00,VWS V13.00,2013-03-30 16:23:00,
2013-03-30 12:28:00,57.2,26.9,30.08,SE,128,5.4,5.4,31,0.00,,-RA,0.00,VWS V13.00,2013-03-30 16:28:00,
2013-03-30 12:33:00,58.5,27.2,30.08,South,183,8.7,10.5,30,0.00,,-RA,0.00,VWS V13.00,2013-03-30 16:33:00,
2013-03-30 12:39:00,58.3,26.2,30.08,WSW,248,5.4,10.5,29,0.00,,-RA,0.00,VWS V13.00,2013-03-30 16:39:00,
2013-03-30 12:44:00,59.2,27.0,30.08,WNW,302,5.4,10.1,29,0.00,,-RA,0.00,VWS V13.00,2013-03-30 16:44:00,
2013-03-30 12:49:00,59.2,26.1,30.08,NNE,17,2.7,10.1,28,0.00,,-RA,0.00,VWS V13.00,2013-03-30 16:49:00,
2013-03-30 12:54:00,59.2,26.1,30.08,WNW,283,2.2,10.1,28,0.00,,-RA,0.00,VWS V13.00,2013-03-30 16:54:00,
2013-03-30 12:59:00,58.5,25.5,30.08,SE,128,3.1,10.1,28,0.00,,-RA,0.00,VWS V13.00,2013-03-30 16:59:00,
2013-03-30 13:04:00,57.7,24.0,30.08,NNE,33,5.4,7.6,27,0.00,,-RA,0.00,VWS V13.00,2013-03-30 17:04:00,
2013-03-30 13:09:00,58.1,25.2,30.08,West,268,0.0,7.6,28,0.00,,-RA,0.00,VWS V13.00,2013-03-30 17:09:00,
2013-03-30 13:14:00,58.1,24.3,30.08,NNW,342,2.7,7.6,27,0.00,,-RA,0.00,VWS V13.00,2013-03-30 17:14:00,
2013-03-30 13:19:00,58.8,25.8,30.08,WSW,242,4.9,7.6,28,0.00,,-RA,0.00,VWS V13.00,2013-03-30 17:19:00,
2013-03-30 13:24:00,60.6,27.4,30.08,South,177,3.1,6.3,28,0.00,,-RA,0.00,VWS V13.00,2013-03-30 17:24:00,
2013-03-30 13:29:00,60.4,26.3,30.08,South,187,4.0,8.3,27,0.00,,-RA,0.00,VWS V13.00,2013-03-30 17:29:00,
2013-03-30 13:34:00,59.2,24.3,30.08,WNW,283,3.1,8.3,26,0.00,,-RA,0.00,VWS V13.00,2013-03-30 17:34:00,
2013-03-30 13:39:00,56.8,23.2,30.08,North,357,3.6,8.3,27,0.00,,-RA,0.00,VWS V13.00,2013-03-30 17:39:00,
2013-03-30 13:44:00,55.6,22.1,30.05,NNE,24,3.1,5.8,27,0.00,,-RA,0.00,VWS V13.00,2013-03-30 17:44:00,
2013-03-30 13:49:00,56.3,22.8,30.05,SW,214,5.8,8.3,27,0.00,,-RA,0.00,VWS V13.00,2013-03-30 17:49:00,
2013-03-30 13:55:00,58.1,24.3,30.05,WNW,299,0.0,8.3,27,0.00,,-RA,0.00,VWS V13.00,2013-03-30 17:55:00,
2013-03-30 14:00:00,59.2,24.3,30.05,West,268,5.8,9.6,26,0.00,,-RA,0.00,VWS V13.00,2013-03-30 18:00:00,
2013-03-30 14:05:00,58.8,24.0,30.05,SSW,205,0.0,7.6,26,0.00,,-RA,0.00,VWS V13.00,2013-03-30 18:05:00,
2013-03-30 14:10:00,57.9,23.3,30.05,WSW,247,0.0,7.6,26,0.00,,-RA,0.00,VWS V13.00,2013-03-30 18:10:00,
2013-03-30 14:15:00,57.7,23.1,30.05,North,0,2.7,8.3,26,0.00,,-RA,0.00,VWS V13.00,2013-03-30 18:15:00,
2013-03-30 14:20:00,57.2,22.6,30.05,ENE,65,2.2,8.3,26,0.00,,-RA,0.00,VWS V13.00,2013-03-30 18:20:00,
2013-03-30 14:25:00,57.4,22.8,30.05,NNE,24,2.7,3.1,26,0.00,,-RA,0.00,VWS V13.00,2013-03-30 18:25:00,
2013-03-30 14:30:00,57.0,22.5,30.05,North,349,3.1,4.0,26,0.00,,-RA,0.00,VWS V13.00,2013-03-30 18:30:00,
2013-03-30 14:35:00,56.3,21.9,30.05,ENE,64,4.0,5.8,26,0.00,,-RA,0.00,VWS V13.00,2013-03-30 18:35:00,
2013-03-30 14:40:00,57.7,23.1,30.05,South,186,2.7,8.1,26,0.00,,-RA,0.00,VWS V13.00,2013-03-30 18:40:00,
2013-03-30 14:45:00,58.5,23.7,30.05,West,280,2.7,8.7,26,0.00,,-RA,0.00,VWS V13.00,2013-03-30 18:45:00,
2013-03-30 14:50:00,58.8,24.0,30.05,East,93,2.2,8.7,26,0.00,,-RA,0.00,VWS V13.00,2013-03-30 18:50:00,
2013-03-30 14:55:00,59.4,23.6,30.05,WNW,285,7.6,10.5,25,0.00,,-RA,0.00,VWS V13.00,2013-03-30 18:55:00,
2013-03-30 15:00:00,59.5,23.7,30.05,SSW,195,3.6,12.8,25,0.00,,-RA,0.00,VWS V13.00,2013-03-30 19:00:00,
2013-03-30 15:05:00,61.0,24.9,30.05,NNE,16,4.9,8.1,25,0.00,,-RA,0.00,VWS V13.00,2013-03-30 19:05:00,
2013-03-30 15:10:00,59.9,24.0,30.05,WSW,243,3.6,8.1,25,0.00,,-RA,0.00,VWS V13.00,2013-03-30 19:10:00,
2013-03-30 15:15:00,60.4,24.5,30.05,SW,225,5.8,8.3,25,0.00,,-RA,0.00,VWS V13.00,2013-03-30 19:15:00,
2013-03-30 15:21:00,59.9,24.0,30.05,West,273,5.4,5.4,25,0.00,,-RA,0.00,VWS V13.00,2013-03-30 19:21:00,
2013-03-30 15:26:00,59.7,23.9,30.05,WNW,292,0.0,8.7,25,0.00,,-RA,0.00,VWS V13.00,2013-03-30 19:26:00,
2013-03-30 15:31:00,59.9,23.0,30.02,WSW,241,7.2,8.7,24,0.00,,-RA,0.00,VWS V13.00,2013-03-30 19:31:00,
2013-03-30 15:36:00,60.1,23.2,30.02,South,176,3.1,8.7,24,0.00,,-RA,0.00,VWS V13.00,2013-03-30 19:36:00,
2013-03-30 15:41:00,60.4,23.5,30.02,West,262,7.6,11.0,24,0.00,,-RA,0.00,VWS V13.00,2013-03-30 19:41:00,
2013-03-30 15:46:00,60.4,23.5,30.02,SW,220,4.0,11.0,24,0.00,,-RA,0.00,VWS V13.00,2013-03-30 19:46:00,
2013-03-30 15:51:00,60.1,23.2,30.02,SW,225,10.1,11.0,24,0.00,,-RA,0.00,VWS V13.00,2013-03-30 19:51:00,
2013-03-30 15:57:00,59.2,20.4,30.02,NNW,345,0.0,11.0,22,0.00,,-RA,0.00,VWS V13.00,2013-03-30 19:57:00,
2013-03-30 16:02:00,59.5,22.7,30.02,NW,312,4.9,8.3,24,0.00,,-RA,0.00,VWS V13.00,2013-03-30 20:02:00,
2013-03-30 16:07:00,59.2,22.4,30.02,NE,35,5.4,8.3,24,0.00,,-RA,0.00,VWS V13.00,2013-03-30 20:07:00,
2013-03-30 16:12:00,59.2,22.4,30.02,South,182,2.7,8.3,24,0.00,,-RA,0.00,VWS V13.00,2013-03-30 20:12:00,
2013-03-30 16:17:00,60.4,23.5,30.02,West,276,4.5,8.3,24,0.00,,-RA,0.00,VWS V13.00,2013-03-30 20:17:00,
2013-03-30 16:22:00,59.9,23.0,30.02,ENE,76,0.0,3.1,24,0.00,,-RA,0.00,VWS V13.00,2013-03-30 20:22:00,
2013-03-30 16:28:00,59.7,22.9,30.02,SSW,202,5.4,7.2,24,0.00,,-RA,0.00,VWS V13.00,2013-03-30 20:28:00,
2013-03-30 16:33:00,60.1,23.2,30.02,SSE,165,3.6,7.2,24,0.00,,SCT085,0.00,VWS V13.00,2013-03-30 20:33:00,
2013-03-30 16:38:00,59.0,20.2,30.02,NNW,331,3.6,7.2,22,0.00,,SCT085,0.00,VWS V13.00,2013-03-30 20:38:00,
2013-03-30 16:43:00,58.6,19.9,30.02,South,172,3.1,5.4,22,0.00,,SCT085,0.00,VWS V13.00,2013-03-30 20:43:00,
2013-03-30 16:48:00,58.6,19.9,30.02,East,84,0.0,6.3,22,0.00,,SCT085,0.00,VWS V13.00,2013-03-30 20:48:00,
2013-03-30 16:53:00,57.9,19.3,30.02,NNE,29,4.0,6.3,22,0.00,,SCT085,0.00,VWS V13.00,2013-03-30 20:53:00,
2013-03-30 16:58:00,57.6,19.0,30.02,SW,230,3.1,6.3,22,0.00,,SCT085,0.00,VWS V13.00,2013-03-30 20:58:00,
2013-03-30 17:03:00,57.9,19.3,30.02,ESE,103,3.1,3.6,22,0.00,,SCT085,0.00,VWS V13.00,2013-03-30 21:03:00,
2013-03-30 17:08:00,57.7,21.2,30.02,NE,34,0.0,4.0,24,0.00,,SCT085,0.00,VWS V13.00,2013-03-30 21:08:00,
2013-03-30 17:13:00,57.6,21.1,30.02,ENE,71,3.6,6.7,24,0.00,,SCT085,0.00,VWS V13.00,2013-03-30 21:13:00,
2013-03-30 17:18:00,57.0,18.6,30.02,NNW,336,3.1,8.7,22,0.00,,SCT085,0.00,VWS V13.00,2013-03-30 21:18:00,
2013-03-30 17:23:00,56.8,18.4,30.02,NE,34,2.7,6.3,22,0.00,,SCT085,0.00,VWS V13.00,2013-03-30 21:23:00,
2013-03-30 17:28:00,56.5,21.1,30.02,SSE,148,0.0,7.6,25,0.00,,SCT085,0.00,VWS V13.00,2013-03-30 21:28:00,
2013-03-30 17:33:00,56.3,21.0,30.02,East,93,3.6,7.6,25,0.00,,CLR,0.00,VWS V13.00,2013-03-30 21:33:00,
2013-03-30 17:38:00,56.1,20.8,30.02,WSW,255,3.1,7.6,25,0.00,,CLR,0.00,VWS V13.00,2013-03-30 21:38:00,
2013-03-30 17:43:00,55.8,20.5,30.02,NW,312,2.7,5.4,25,0.00,,CLR,0.00,VWS V13.00,2013-03-30 21:43:00,
2013-03-30 17:48:00,55.4,20.2,30.02,NW,319,4.0,6.3,25,0.00,,CLR,0.00,VWS V13.00,2013-03-30 21:48:00,
2013-03-30 17:53:00,55.2,20.0,30.02,WSW,251,4.0,6.3,25,0.00,,CLR,0.00,VWS V13.00,2013-03-30 21:53:00,
2013-03-30 17:58:00,55.2,20.0,30.02,West,266,0.0,6.3,25,0.00,,CLR,0.00,VWS V13.00,2013-03-30 21:58:00,
2013-03-30 18:04:00,54.7,20.5,30.02,ESE,113,2.7,4.0,26,0.00,,CLR,0.00,VWS V13.00,2013-03-30 22:04:00,
2013-03-30 18:09:00,54.1,20.0,30.02,WSW,249,6.7,6.7,26,0.00,,CLR,0.00,VWS V13.00,2013-03-30 22:09:00,
2013-03-30 18:14:00,54.0,19.9,30.02,WSW,245,0.0,6.7,26,0.00,,CLR,0.00,VWS V13.00,2013-03-30 22:14:00,
2013-03-30 18:19:00,53.6,19.6,30.02,NNE,15,0.0,6.7,26,0.00,,CLR,0.00,VWS V13.00,2013-03-30 22:19:00,
2013-03-30 18:24:00,53.2,19.3,30.02,WNW,283,0.0,3.6,26,0.00,,CLR,0.00,VWS V13.00,2013-03-30 22:24:00,
2013-03-30 18:29:00,52.7,18.8,30.02,NNW,331,0.0,3.6,26,0.00,,CLR,0.00,VWS V13.00,2013-03-30 22:29:00,
2013-03-30 18:34:00,52.3,18.5,30.02,WNW,283,0.0,5.4,26,0.00,,-RA,0.00,VWS V13.00,2013-03-30 22:34:00,
2013-03-30 18:39:00,51.8,18.0,30.02,WNW,283,0.0,5.4,26,0.00,,-RA,0.00,VWS V13.00,2013-03-30 22:39:00,
2013-03-30 18:44:00,51.3,18.4,30.02,SE,138,0.0,2.2,27,0.00,,-RA,0.00,VWS V13.00,2013-03-30 22:44:00,
2013-03-30 18:49:00,50.9,18.1,30.02,SE,138,0.0,2.2,27,0.00,,-RA,0.00,VWS V13.00,2013-03-30 22:49:00,
2013-03-30 18:54:00,50.5,17.8,30.02,SE,138,0.0,2.2,27,0.00,,-RA,0.00,VWS V13.00,2013-03-30 22:54:00,
2013-03-30 18:59:00,50.5,17.8,30.02,SW,225,0.0,4.0,27,0.00,,-RA,0.00,VWS V13.00,2013-03-30 22:59:00,
2013-03-30 19:04:00,50.0,17.4,30.02,SW,225,0.0,0.0,27,0.00,,-RA,0.00,VWS V13.00,2013-03-30 23:04:00,
2013-03-30 19:09:00,49.8,18.0,30.02,WNW,288,0.0,4.0,28,0.00,,-RA,0.00,VWS V13.00,2013-03-30 23:09:00,
2013-03-30 19:14:00,49.1,17.4,30.05,WNW,288,0.0,4.0,28,0.00,,-RA,0.00,VWS V13.00,2013-03-30 23:14:00,
2013-03-30 19:19:00,48.9,17.3,30.05,WNW,288,0.0,4.0,28,0.00,,-RA,0.00,VWS V13.00,2013-03-30 23:19:00,
2013-03-30 19:24:00,48.4,16.8,30.05,WNW,288,0.0,0.0,28,0.00,,-RA,0.00,VWS V13.00,2013-03-30 23:24:00,
2013-03-30 19:29:00,47.8,17.1,30.05,WNW,288,0.0,0.0,29,0.00,,-RA,0.00,VWS V13.00,2013-03-30 23:29:00,
2013-03-30 19:34:00,47.7,17.0,30.05,WNW,288,0.0,0.0,29,0.00,,CLR,0.00,VWS V13.00,2013-03-30 23:34:00,
2013-03-30 19:39:00,47.5,16.8,30.05,WNW,288,0.0,0.0,29,0.00,,CLR,0.00,VWS V13.00,2013-03-30 23:39:00,
2013-03-30 19:44:00,47.1,16.5,30.05,WNW,288,0.0,0.0,29,0.00,,CLR,0.00,VWS V13.00,2013-03-30 23:44:00,
2013-03-30 19:49:00,46.4,16.7,30.05,WNW,288,0.0,0.0,30,0.00,,CLR,0.00,VWS V13.00,2013-03-30 23:49:00,
2013-03-30 19:55:00,45.9,17.0,30.05,WNW,288,0.0,0.0,31,0.00,,CLR,0.00,VWS V13.00,2013-03-30 23:55:00,
2013-03-30 20:00:00,45.5,16.6,30.05,WNW,288,2.2,2.7,31,0.00,,CLR,0.00,VWS V13.00,2013-03-31 00:00:00,
2013-03-30 20:05:00,45.0,16.9,30.05,WNW,288,0.0,2.2,32,0.00,,CLR,0.00,VWS V13.00,2013-03-31 00:05:00,
2013-03-30 20:10:00,44.2,17.0,30.05,WNW,288,0.0,2.2,33,0.00,,CLR,0.00,VWS V13.00,2013-03-31 00:10:00,
2013-03-30 20:15:00,44.1,17.5,30.05,WNW,288,0.0,2.2,34,0.00,,CLR,0.00,VWS V13.00,2013-03-31 00:15:00,
2013-03-30 20:20:00,43.5,17.7,30.05,WNW,288,0.0,2.2,35,0.00,,CLR,0.00,VWS V13.00,2013-03-31 00:20:00,
2013-03-30 20:25:00,43.0,17.9,30.05,WNW,288,0.0,0.0,36,0.00,,CLR,0.00,VWS V13.00,2013-03-31 00:25:00,
2013-03-30 20:30:00,42.8,18.4,30.05,WNW,288,0.0,0.0,37,0.00,,CLR,0.00,VWS V13.00,2013-03-31 00:30:00,
2013-03-30 20:35:00,41.7,18.0,30.05,WNW,288,0.0,0.0,38,0.00,,CLR,0.00,VWS V13.00,2013-03-31 00:35:00,
2013-03-30 20:40:00,41.4,18.3,30.05,WNW,288,0.0,0.0,39,0.00,,CLR,0.00,VWS V13.00,2013-03-31 00:40:00,
2013-03-30 20:45:00,40.6,17.6,30.05,WNW,288,0.0,0.0,39,0.00,,CLR,0.00,VWS V13.00,2013-03-31 00:45:00,
2013-03-30 20:50:00,40.3,17.9,30.05,WNW,288,0.0,0.0,40,0.00,,CLR,0.00,VWS V13.00,2013-03-31 00:50:00,
2013-03-30 20:55:00,39.9,17.6,30.05,WNW,288,0.0,0.0,40,0.00,,CLR,0.00,VWS V13.00,2013-03-31 00:55:00,
2013-03-30 21:00:00,39.7,17.4,30.05,WNW,288,0.0,0.0,40,0.00,,CLR,0.00,VWS V13.00,2013-03-31 01:00:00,
2013-03-30 21:05:00,39.4,17.1,30.05,WNW,288,0.0,0.0,40,0.00,,CLR,0.00,VWS V13.00,2013-03-31 01:05:00,
2013-03-30 21:10:00,39.2,16.9,30.05,WNW,288,0.0,0.0,40,0.00,,CLR,0.00,VWS V13.00,2013-03-31 01:10:00,
2013-03-30 21:15:00,38.8,17.2,30.05,WNW,288,0.0,0.0,41,0.00,,CLR,0.00,VWS V13.00,2013-03-31 01:15:00,
2013-03-30 21:20:00,38.5,17.4,30.05,WNW,288,0.0,0.0,42,0.00,,CLR,0.00,VWS V13.00,2013-03-31 01:20:00,
2013-03-30 21:25:00,37.9,16.9,30.05,WNW,288,0.0,0.0,42,0.00,,CLR,0.00,VWS V13.00,2013-03-31 01:25:00,
2013-03-30 21:30:00,37.6,16.6,30.05,WNW,288,0.0,0.0,42,0.00,,CLR,0.00,VWS V13.00,2013-03-31 01:30:00,
2013-03-30 21:35:00,37.6,17.1,30.05,WNW,288,0.0,0.0,43,0.00,,CLR,0.00,VWS V13.00,2013-03-31 01:35:00,
2013-03-30 21:40:00,37.6,17.1,30.05,WNW,288,0.0,0.0,43,0.00,,CLR,0.00,VWS V13.00,2013-03-31 01:40:00,
2013-03-30 21:45:00,37.2,17.3,30.08,WNW,288,0.0,0.0,44,0.00,,CLR,0.00,VWS V13.00,2013-03-31 01:45:00,
2013-03-30 21:50:00,36.9,17.0,30.08,WNW,288,0.0,0.0,44,0.00,,CLR,0.00,VWS V13.00,2013-03-31 01:50:00,
2013-03-30 21:55:00,36.7,16.8,30.08,WNW,288,0.0,0.0,44,0.00,,CLR,0.00,VWS V13.00,2013-03-31 01:55:00,
2013-03-30 22:00:00,36.7,16.8,30.08,WNW,288,0.0,2.7,44,0.00,,CLR,0.00,VWS V13.00,2013-03-31 02:00:00,
2013-03-30 22:05:00,36.7,16.8,30.08,WNW,288,2.2,2.2,44,0.00,,CLR,0.00,VWS V13.00,2013-03-31 02:05:00,
2013-03-30 22:10:00,36.5,16.7,30.08,WNW,288,2.2,2.7,44,0.00,,CLR,0.00,VWS V13.00,2013-03-31 02:10:00,
2013-03-30 22:15:00,36.3,16.5,30.08,WNW,288,0.0,2.7,44,0.00,,CLR,0.00,VWS V13.00,2013-03-31 02:15:00,
2013-03-30 22:20:00,36.0,16.7,30.08,WNW,288,0.0,0.0,45,0.00,,CLR,0.00,VWS V13.00,2013-03-31 02:20:00,
2013-03-30 22:25:00,35.6,16.4,30.08,WNW,288,2.7,2.7,45,0.00,,CLR,0.00,VWS V13.00,2013-03-31 02:25:00,
2013-03-30 22:30:00,35.6,16.9,30.08,WNW,288,3.1,3.1,46,0.00,,CLR,0.00,VWS V13.00,2013-03-31 02:30:00,
2013-03-30 22:36:00,35.4,16.7,30.08,WNW,288,2.7,3.1,46,0.00,,CLR,0.00,VWS V13.00,2013-03-31 02:36:00,
2013-03-30 22:41:00,35.1,16.9,30.08,WNW,288,0.0,0.0,47,0.00,,CLR,0.00,VWS V13.00,2013-03-31 02:41:00,
2013-03-30 22:46:00,34.9,17.2,30.08,WNW,288,0.0,0.0,48,0.00,,CLR,0.00,VWS V13.00,2013-03-31 02:46:00,
2013-03-30 22:51:00,34.5,17.3,30.08,WNW,288,0.0,0.0,49,0.00,,CLR,0.00,VWS V13.00,2013-03-31 02:51:00,
2013-03-30 22:56:00,34.5,17.3,30.08,WNW,288,0.0,0.0,49,0.00,,CLR,0.00,VWS V13.00,2013-03-31 02:56:00,
2013-03-30 23:01:00,34.5,17.8,30.08,WNW,288,0.0,0.0,50,0.00,,CLR,0.00,VWS V13.00,2013-03-31 03:01:00,
2013-03-30 23:06:00,34.2,17.5,30.08,WNW,288,0.0,0.0,50,0.00,,CLR,0.00,VWS V13.00,2013-03-31 03:06:00,
2013-03-30 23:12:00,33.8,17.6,30.08,WNW,288,0.0,0.0,51,0.00,,CLR,0.00,VWS V13.00,2013-03-31 03:12:00,
2013-03-30 23:17:00,33.6,17.9,30.08,WNW,288,0.0,0.0,52,0.00,,CLR,0.00,VWS V13.00,2013-03-31 03:17:00,
2013-03-30 23:22:00,33.4,17.7,30.08,WNW,288,0.0,0.0,52,0.00,,CLR,0.00,VWS V13.00,2013-03-31 03:22:00,
2013-03-30 23:27:00,33.3,17.5,30.08,WNW,288,0.0,2.2,52,0.00,,CLR,0.00,VWS V13.00,2013-03-31 03:27:00,
2013-03-30 23:32:00,33.1,17.4,30.08,WNW,288,0.0,2.2,52,0.00,,CLR,0.00,VWS V13.00,2013-03-31 03:32:00,
2013-03-30 23:37:00,33.1,17.8,30.08,WNW,288,0.0,2.2,53,0.00,,CLR,0.00,VWS V13.00,2013-03-31 03:37:00,
2013-03-30 23:42:00,32.9,17.7,30.08,WNW,288,0.0,0.0,53,0.00,,CLR,0.00,VWS V13.00,2013-03-31 03:42:00,
2013-03-30 23:47:00,32.7,17.5,30.08,WNW,288,2.2,3.1,53,0.00,,CLR,0.00,VWS V13.00,2013-03-31 03:47:00,
2013-03-30 23:52:00,32.5,17.8,30.08,WNW,288,0.0,3.1,54,0.00,,CLR,0.00,VWS V13.00,2013-03-31 03:52:00,
2013-03-30 23:57:00,32.2,17.4,30.08,WNW,288,0.0,3.1,54,0.00,,CLR,0.00,VWS V13.00,2013-03-31 03:57:00,